createdAt,value
2022-12-31T00:00:15.830Z,10.1
2022-12-31T00:01:16.046Z,10.1
2022-12-31T00:02:16.378Z,10.1
2022-12-31T00:03:17.011Z,10.1
2022-12-31T00:04:17.357Z,10.1
2022-12-31T00:05:17.517Z,10.1
2022-12-31T00:06:17.672Z,10.1
2022-12-31T00:07:17.824Z,10.1
2022-12-31T00:08:18.169Z,10.1
2022-12-31T00:09:18.320Z,10.1
2022-12-31T00:10:18.495Z,10.1
2022-12-31T00:11:18.629Z,10.1
2022-12-31T00:12:18.797Z,10.1
2022-12-31T00:13:18.952Z,10.2
2022-12-31T00:14:19.099Z,10.2
2022-12-31T00:15:19.247Z,10.2
2022-12-31T00:16:19.534Z,10.2
2022-12-31T00:17:19.775Z,10.2
2022-12-31T00:18:19.940Z,10.2
2022-12-31T00:19:20.135Z,10.2
2022-12-31T00:20:20.362Z,10.2
2022-12-31T00:21:20.554Z,10.2
2022-12-31T00:22:20.707Z,10.2
2022-12-31T00:23:20.878Z,10.2
2022-12-31T00:24:21.056Z,10.2
2022-12-31T00:25:21.267Z,10.2
2022-12-31T00:26:21.417Z,10.2
2022-12-31T00:27:21.587Z,10.2
2022-12-31T00:28:21.745Z,10.2
2022-12-31T00:29:21.907Z,10.2
2022-12-31T00:30:22.139Z,10.2
2022-12-31T00:31:22.441Z,10.2
2022-12-31T00:32:22.603Z,10.2
2022-12-31T00:33:22.752Z,10.3
2022-12-31T00:34:22.904Z,10.3
2022-12-31T00:35:23.048Z,10.3
2022-12-31T00:36:23.280Z,10.3
2022-12-31T00:37:23.428Z,10.3
2022-12-31T00:38:23.583Z,10.3
2022-12-31T00:39:23.741Z,10.3
2022-12-31T00:40:23.901Z,10.3
2022-12-31T00:41:24.078Z,10.3
2022-12-31T00:42:24.237Z,10.3
2022-12-31T00:43:24.419Z,10.4
2022-12-31T00:44:24.595Z,10.4
2022-12-31T00:45:24.768Z,10.4
2022-12-31T00:46:25.049Z,10.4
2022-12-31T00:47:25.675Z,10.4
2022-12-31T00:48:25.839Z,10.4
2022-12-31T00:49:25.995Z,10.4
2022-12-31T00:50:26.163Z,10.4
2022-12-31T00:51:26.327Z,10.4
2022-12-31T00:52:26.506Z,10.4
2022-12-31T00:53:26.676Z,10.4
2022-12-31T00:54:26.834Z,10.4
2022-12-31T00:55:26.984Z,10.4
2022-12-31T00:56:27.163Z,10.4
2022-12-31T00:57:27.329Z,10.4
2022-12-31T00:58:27.498Z,10.4
2022-12-31T00:59:27.667Z,10.4
2022-12-31T01:00:27.839Z,10.4
2022-12-31T01:01:28.322Z,10.4
2022-12-31T01:02:29.257Z,10.4
2022-12-31T01:03:30.103Z,10.5
2022-12-31T01:04:30.365Z,10.5
2022-12-31T01:05:30.522Z,10.5
2022-12-31T01:06:30.696Z,10.5
2022-12-31T01:07:30.877Z,10.5
2022-12-31T01:08:31.164Z,10.5
2022-12-31T01:09:31.341Z,10.5
2022-12-31T01:10:31.505Z,10.5
2022-12-31T01:11:31.676Z,10.5
2022-12-31T01:12:31.840Z,10.5
2022-12-31T01:13:32.001Z,10.5
2022-12-31T01:14:32.161Z,10.5
2022-12-31T01:15:32.358Z,10.5
2022-12-31T01:16:32.577Z,10.5
2022-12-31T01:17:32.731Z,10.5
2022-12-31T01:18:32.877Z,10.5
2022-12-31T01:19:33.031Z,10.5
2022-12-31T01:20:33.184Z,10.5
2022-12-31T01:21:33.343Z,10.5
2022-12-31T01:22:33.497Z,10.5
2022-12-31T01:23:33.654Z,10.5
2022-12-31T01:24:33.816Z,10.5
2022-12-31T01:25:33.969Z,10.5
2022-12-31T01:26:34.131Z,10.5
2022-12-31T01:27:34.301Z,10.5
2022-12-31T01:28:34.454Z,10.5
2022-12-31T01:29:34.615Z,10.5
2022-12-31T01:30:34.936Z,10.5
2022-12-31T01:31:35.286Z,10.5
2022-12-31T01:32:35.446Z,10.5
2022-12-31T01:33:35.652Z,10.5
2022-12-31T01:34:35.829Z,10.5
2022-12-31T01:35:35.990Z,10.5
2022-12-31T01:36:36.140Z,10.5
2022-12-31T01:37:36.319Z,10.5
2022-12-31T01:38:36.472Z,10.5
2022-12-31T01:39:36.632Z,10.5
2022-12-31T01:40:36.808Z,10.5
2022-12-31T01:41:36.957Z,10.5
2022-12-31T01:42:37.119Z,10.5
2022-12-31T01:43:37.274Z,10.5
2022-12-31T01:44:37.423Z,10.5
2022-12-31T01:45:37.579Z,10.5
2022-12-31T01:46:37.819Z,10.5
2022-12-31T01:47:38.079Z,10.5
2022-12-31T01:48:38.247Z,10.5
2022-12-31T01:49:38.399Z,10.5
2022-12-31T01:50:38.556Z,10.5
2022-12-31T01:51:38.701Z,10.5
2022-12-31T01:52:38.859Z,10.5
2022-12-31T01:53:41.106Z,10.6
2022-12-31T01:54:41.265Z,10.6
2022-12-31T01:55:41.428Z,10.6
2022-12-31T01:56:41.594Z,10.6
2022-12-31T01:57:41.755Z,10.6
2022-12-31T01:58:41.910Z,10.6
2022-12-31T01:59:42.067Z,10.6
2022-12-31T02:00:42.223Z,10.6
2022-12-31T02:01:42.616Z,10.6
2022-12-31T02:02:43.143Z,10.6
2022-12-31T02:03:43.486Z,10.7
2022-12-31T02:04:43.648Z,10.7
2022-12-31T02:05:43.821Z,10.7
2022-12-31T02:06:43.982Z,10.7
2022-12-31T02:07:44.157Z,10.7
2022-12-31T02:08:44.313Z,10.7
2022-12-31T02:09:44.464Z,10.7
2022-12-31T02:10:44.613Z,10.7
2022-12-31T02:11:44.758Z,10.7
2022-12-31T02:12:44.932Z,10.8
2022-12-31T02:13:45.121Z,10.8
2022-12-31T02:14:45.269Z,10.8
2022-12-31T02:15:45.569Z,10.8
2022-12-31T02:16:45.830Z,10.8
2022-12-31T02:17:45.981Z,10.8
2022-12-31T02:18:46.133Z,10.8
2022-12-31T02:19:46.300Z,10.8
2022-12-31T02:20:46.456Z,10.8
2022-12-31T02:21:46.719Z,10.8
2022-12-31T02:22:47.047Z,10.9
2022-12-31T02:23:47.344Z,10.9
2022-12-31T02:24:47.504Z,10.9
2022-12-31T02:25:47.681Z,10.9
2022-12-31T02:26:47.847Z,10.9
2022-12-31T02:27:48.017Z,10.9
2022-12-31T02:28:48.174Z,10.9
2022-12-31T02:29:48.355Z,10.9
2022-12-31T02:30:48.633Z,10.9
2022-12-31T02:31:49.021Z,10.9
2022-12-31T02:32:49.183Z,11
2022-12-31T02:33:49.348Z,11
2022-12-31T02:34:49.496Z,11
2022-12-31T02:35:49.675Z,11
2022-12-31T02:36:49.835Z,11
2022-12-31T02:37:49.982Z,11
2022-12-31T02:38:50.155Z,11
2022-12-31T02:39:50.308Z,11
2022-12-31T02:40:50.495Z,11
2022-12-31T02:41:50.709Z,11
2022-12-31T02:42:55.932Z,11.1
2022-12-31T02:43:56.180Z,11.1
2022-12-31T02:44:56.327Z,11.1
2022-12-31T02:45:56.512Z,11.1
2022-12-31T02:46:56.662Z,11.1
2022-12-31T02:47:56.815Z,11.1
2022-12-31T02:48:56.966Z,11.1
2022-12-31T02:49:57.116Z,11.1
2022-12-31T02:50:57.274Z,11.1
2022-12-31T02:51:57.427Z,11.1
2022-12-31T02:52:57.583Z,11.2
2022-12-31T02:53:57.751Z,11.2
2022-12-31T02:54:57.957Z,11.2
2022-12-31T02:55:58.122Z,11.2
2022-12-31T02:56:58.277Z,11.2
2022-12-31T02:57:58.424Z,11.2
2022-12-31T02:58:58.568Z,11.2
2022-12-31T02:59:58.717Z,11.2
2022-12-31T03:00:59.057Z,11.2
2022-12-31T03:01:59.633Z,11.2
2022-12-31T03:03:00.145Z,11.3
2022-12-31T03:04:00.308Z,11.3
2022-12-31T03:05:00.488Z,11.3
2022-12-31T03:06:00.643Z,11.3
2022-12-31T03:07:00.797Z,11.3
2022-12-31T03:08:00.955Z,11.3
2022-12-31T03:09:01.109Z,11.3
2022-12-31T03:10:01.281Z,11.3
2022-12-31T03:11:01.447Z,11.3
2022-12-31T03:12:01.603Z,11.3
2022-12-31T03:13:01.757Z,11.4
2022-12-31T03:14:01.929Z,11.4
2022-12-31T03:15:02.098Z,11.4
2022-12-31T03:16:02.394Z,11.4
2022-12-31T03:17:02.621Z,11.4
2022-12-31T03:18:02.800Z,11.4
2022-12-31T03:19:02.967Z,11.4
2022-12-31T03:20:03.139Z,11.4
2022-12-31T03:21:03.309Z,11.4
2022-12-31T03:22:03.471Z,11.4
2022-12-31T03:23:03.617Z,11.6
2022-12-31T03:24:03.764Z,11.6
2022-12-31T03:25:03.912Z,11.6
2022-12-31T03:26:04.079Z,11.6
2022-12-31T03:27:04.231Z,11.6
2022-12-31T03:28:04.397Z,11.6
2022-12-31T03:29:04.589Z,11.6
2022-12-31T03:30:04.756Z,11.6
2022-12-31T03:31:05.001Z,11.6
2022-12-31T03:32:05.250Z,11.6
2022-12-31T03:33:05.418Z,11.6
2022-12-31T03:34:05.569Z,11.6
2022-12-31T03:35:05.766Z,11.6
2022-12-31T03:36:06.086Z,11.6
2022-12-31T03:37:06.280Z,11.6
2022-12-31T03:38:06.441Z,11.6
2022-12-31T03:39:06.616Z,11.6
2022-12-31T03:40:06.798Z,11.6
2022-12-31T03:41:06.955Z,11.6
2022-12-31T03:42:07.127Z,11.6
2022-12-31T03:43:07.276Z,11.7
2022-12-31T03:44:07.431Z,11.7
2022-12-31T03:45:07.585Z,11.7
2022-12-31T03:46:07.880Z,11.7
2022-12-31T03:47:08.120Z,11.7
2022-12-31T03:48:08.282Z,11.7
2022-12-31T03:49:08.451Z,11.7
2022-12-31T03:50:08.607Z,11.7
2022-12-31T03:51:08.764Z,11.7
2022-12-31T03:52:08.932Z,11.7
2022-12-31T03:53:09.118Z,11.8
2022-12-31T03:54:09.291Z,11.8
2022-12-31T03:55:09.438Z,11.8
2022-12-31T03:56:09.597Z,11.8
2022-12-31T03:57:09.756Z,11.8
2022-12-31T03:58:09.909Z,11.8
2022-12-31T03:59:10.081Z,11.8
2022-12-31T04:00:10.280Z,11.8
2022-12-31T04:01:10.729Z,11.8
2022-12-31T04:02:11.535Z,11.8
2022-12-31T04:03:12.052Z,11.8
2022-12-31T04:04:12.424Z,11.8
2022-12-31T04:05:12.572Z,11.8
2022-12-31T04:06:12.726Z,11.8
2022-12-31T04:07:12.884Z,11.8
2022-12-31T04:08:13.036Z,11.8
2022-12-31T04:09:13.186Z,11.8
2022-12-31T04:10:13.353Z,11.8
2022-12-31T04:11:20.943Z,11.8
2022-12-31T04:12:21.473Z,11.9
2022-12-31T04:13:21.627Z,11.9
2022-12-31T04:14:21.792Z,11.9
2022-12-31T04:15:21.974Z,11.9
2022-12-31T04:16:22.313Z,11.9
2022-12-31T04:17:22.572Z,11.9
2022-12-31T04:18:22.725Z,11.9
2022-12-31T04:19:22.898Z,11.9
2022-12-31T04:20:23.117Z,11.9
2022-12-31T04:21:23.294Z,11.9
2022-12-31T04:22:23.447Z,11.9
2022-12-31T04:23:23.598Z,12
2022-12-31T04:24:23.755Z,12
2022-12-31T04:25:23.960Z,12
2022-12-31T04:26:24.128Z,12
2022-12-31T04:27:24.273Z,12
2022-12-31T04:28:24.432Z,12
2022-12-31T04:29:24.576Z,12
2022-12-31T04:30:24.728Z,12
2022-12-31T04:31:24.971Z,12
2022-12-31T04:32:25.507Z,12
2022-12-31T04:33:25.668Z,12
2022-12-31T04:34:25.819Z,12
2022-12-31T04:35:25.972Z,12
2022-12-31T04:36:26.165Z,12
2022-12-31T04:37:26.325Z,12
2022-12-31T04:38:26.502Z,12
2022-12-31T04:39:26.651Z,12
2022-12-31T04:40:26.811Z,12
2022-12-31T04:41:26.998Z,12
2022-12-31T04:42:27.233Z,12
2022-12-31T04:43:27.379Z,12.1
2022-12-31T04:44:27.532Z,12.1
2022-12-31T04:45:27.685Z,12.1
2022-12-31T04:46:27.846Z,12.1
2022-12-31T04:47:28.013Z,12.1
2022-12-31T04:48:28.215Z,12.1
2022-12-31T04:49:28.380Z,12.1
2022-12-31T04:50:28.531Z,12.1
2022-12-31T04:51:28.684Z,12.1
2022-12-31T04:52:28.831Z,12.1
2022-12-31T04:53:28.978Z,12.1
2022-12-31T04:54:29.133Z,12.1
2022-12-31T04:55:29.292Z,12.1
2022-12-31T04:56:29.444Z,12.1
2022-12-31T04:57:29.607Z,12.1
2022-12-31T04:58:29.749Z,12.1
2022-12-31T04:59:29.905Z,12.1
2022-12-31T05:00:30.051Z,12.1
2022-12-31T05:01:30.352Z,12.1
2022-12-31T05:02:31.276Z,12.1
2022-12-31T05:03:31.757Z,12.2
2022-12-31T05:04:31.942Z,12.2
2022-12-31T05:05:32.099Z,12.2
2022-12-31T05:06:32.248Z,12.2
2022-12-31T05:07:32.404Z,12.2
2022-12-31T05:08:32.578Z,12.2
2022-12-31T05:09:32.735Z,12.2
2022-12-31T05:10:32.897Z,12.2
2022-12-31T05:11:33.100Z,12.2
2022-12-31T05:12:33.355Z,12.2
2022-12-31T05:13:33.979Z,12.2
2022-12-31T05:14:34.148Z,12.2
2022-12-31T05:15:34.314Z,12.2
2022-12-31T05:16:34.572Z,12.2
2022-12-31T05:17:34.814Z,12.2
2022-12-31T05:18:34.978Z,12.2
2022-12-31T05:19:35.133Z,12.2
2022-12-31T05:20:35.282Z,12.2
2022-12-31T05:21:35.450Z,12.2
2022-12-31T05:22:35.655Z,12.2
2022-12-31T05:23:35.818Z,12.3
2022-12-31T05:24:36.048Z,12.3
2022-12-31T05:25:36.452Z,12.3
2022-12-31T05:26:36.616Z,12.3
2022-12-31T05:27:36.774Z,12.3
2022-12-31T05:28:36.941Z,12.3
2022-12-31T05:29:37.092Z,12.3
2022-12-31T05:30:37.380Z,12.3
2022-12-31T05:31:37.604Z,12.3
2022-12-31T05:32:37.751Z,12.3
2022-12-31T05:33:37.907Z,12.3
2022-12-31T05:34:38.064Z,12.3
2022-12-31T05:35:38.221Z,12.3
2022-12-31T05:36:38.369Z,12.3
2022-12-31T05:37:38.523Z,12.3
2022-12-31T05:38:38.681Z,12.3
2022-12-31T05:39:38.843Z,12.3
2022-12-31T05:40:39.015Z,12.3
2022-12-31T05:41:39.199Z,12.3
2022-12-31T05:42:39.373Z,12.3
2022-12-31T05:43:39.537Z,12.2
2022-12-31T05:44:39.688Z,12.2
2022-12-31T05:45:39.841Z,12.2
2022-12-31T05:46:39.998Z,12.2
2022-12-31T05:47:40.144Z,12.2
2022-12-31T05:48:40.305Z,12.2
2022-12-31T05:49:40.468Z,12.2
2022-12-31T05:50:40.642Z,12.2
2022-12-31T05:51:40.802Z,12.2
2022-12-31T05:52:47.697Z,12.2
2022-12-31T05:53:48.061Z,12
2022-12-31T05:54:48.234Z,12
2022-12-31T05:55:48.393Z,12
2022-12-31T05:56:48.585Z,12
2022-12-31T05:57:48.745Z,12
2022-12-31T05:58:48.898Z,12
2022-12-31T05:59:49.065Z,12
2022-12-31T06:00:49.223Z,12
2022-12-31T06:01:49.400Z,12
2022-12-31T06:02:49.686Z,11.7
2022-12-31T06:03:50.085Z,11.7
2022-12-31T06:04:50.424Z,11.7
2022-12-31T06:05:50.604Z,11.7
2022-12-31T06:06:50.785Z,11.7
2022-12-31T06:07:50.934Z,11.7
2022-12-31T06:08:51.107Z,11.7
2022-12-31T06:09:51.255Z,11.7
2022-12-31T06:10:51.409Z,11.7
2022-12-31T06:11:51.582Z,11.7
2022-12-31T06:12:51.743Z,11.4
2022-12-31T06:13:51.901Z,11.4
2022-12-31T06:14:52.050Z,11.4
2022-12-31T06:15:52.295Z,11.4
2022-12-31T06:16:52.523Z,11.4
2022-12-31T06:17:52.675Z,11.4
2022-12-31T06:18:52.830Z,11.4
2022-12-31T06:19:52.996Z,11.4
2022-12-31T06:20:53.145Z,11.4
2022-12-31T06:21:53.324Z,11.4
2022-12-31T06:22:53.510Z,11.1
2022-12-31T06:23:53.657Z,11.1
2022-12-31T06:24:53.814Z,11.1
2022-12-31T06:25:53.970Z,11.1
2022-12-31T06:26:54.128Z,11.1
2022-12-31T06:27:54.276Z,11.1
2022-12-31T06:28:54.449Z,11.1
2022-12-31T06:29:54.620Z,11.1
2022-12-31T06:30:54.817Z,11.1
2022-12-31T06:31:55.098Z,11.1
2022-12-31T06:32:55.290Z,10.8
2022-12-31T06:33:55.459Z,10.8
2022-12-31T06:34:55.639Z,10.8
2022-12-31T06:35:55.790Z,10.8
2022-12-31T06:36:55.963Z,10.8
2022-12-31T06:37:56.119Z,10.8
2022-12-31T06:38:56.270Z,10.8
2022-12-31T06:39:56.451Z,10.8
2022-12-31T06:40:56.608Z,10.8
2022-12-31T06:41:56.784Z,10.8
2022-12-31T06:43:00.655Z,10.6
2022-12-31T06:44:00.838Z,10.6
2022-12-31T06:45:01.025Z,10.6
2022-12-31T06:46:01.296Z,10.6
2022-12-31T06:47:01.535Z,10.6
2022-12-31T06:48:01.705Z,10.6
2022-12-31T06:49:01.865Z,10.6
2022-12-31T06:50:02.027Z,10.6
2022-12-31T06:51:02.200Z,10.6
2022-12-31T06:52:02.385Z,10.6
2022-12-31T06:53:02.554Z,10.4
2022-12-31T06:54:02.731Z,10.4
2022-12-31T06:55:02.908Z,10.4
2022-12-31T06:56:03.069Z,10.4
2022-12-31T06:57:03.234Z,10.4
2022-12-31T06:58:03.418Z,10.4
2022-12-31T06:59:03.576Z,10.4
2022-12-31T07:00:03.717Z,10.4
2022-12-31T07:01:04.023Z,10.4
2022-12-31T07:02:04.650Z,10.4
2022-12-31T07:03:05.269Z,10.3
2022-12-31T07:04:05.501Z,10.3
2022-12-31T07:05:05.659Z,10.3
2022-12-31T07:06:05.812Z,10.3
2022-12-31T07:07:05.965Z,10.3
2022-12-31T07:08:06.124Z,10.3
2022-12-31T07:09:06.290Z,10.3
2022-12-31T07:10:06.444Z,10.3
2022-12-31T07:11:06.614Z,10.3
2022-12-31T07:12:06.779Z,10.3
2022-12-31T07:13:06.949Z,10.3
2022-12-31T07:14:07.171Z,10.3
2022-12-31T07:15:07.322Z,10.3
2022-12-31T07:16:07.674Z,10.3
2022-12-31T07:17:07.893Z,10.3
2022-12-31T07:18:08.051Z,10.3
2022-12-31T07:19:08.190Z,10.3
2022-12-31T07:20:08.372Z,10.3
2022-12-31T07:21:08.530Z,10.3
2022-12-31T07:22:08.705Z,10.3
2022-12-31T07:23:08.861Z,10.2
2022-12-31T07:24:09.023Z,10.2
2022-12-31T07:25:09.198Z,10.2
2022-12-31T07:26:09.347Z,10.2
2022-12-31T07:27:09.501Z,10.2
2022-12-31T07:28:09.672Z,10.2
2022-12-31T07:29:09.816Z,10.2
2022-12-31T07:30:09.966Z,10.2
2022-12-31T07:31:10.279Z,10.2
2022-12-31T07:32:10.465Z,10.2
2022-12-31T07:33:10.620Z,10.1
2022-12-31T07:34:10.774Z,10.1
2022-12-31T07:35:10.989Z,10.1
2022-12-31T07:36:11.166Z,10.1
2022-12-31T07:37:11.324Z,10.1
2022-12-31T07:38:11.500Z,10.1
2022-12-31T07:39:11.670Z,10.1
2022-12-31T07:40:11.829Z,10.1
2022-12-31T07:41:12.010Z,10.1
2022-12-31T07:42:12.171Z,10.1
2022-12-31T07:43:12.322Z,9.89
2022-12-31T07:44:12.540Z,9.89
2022-12-31T07:45:12.689Z,9.89
2022-12-31T07:46:12.980Z,9.89
2022-12-31T07:47:13.252Z,9.89
2022-12-31T07:48:13.400Z,9.89
2022-12-31T07:49:13.551Z,9.89
2022-12-31T07:50:13.708Z,9.89
2022-12-31T07:51:13.922Z,9.89
2022-12-31T07:52:14.080Z,9.89
2022-12-31T07:53:14.231Z,9.89
2022-12-31T07:54:14.649Z,9.89
2022-12-31T07:55:14.801Z,9.89
2022-12-31T07:56:14.959Z,9.89
2022-12-31T07:57:15.115Z,9.89
2022-12-31T07:58:15.282Z,9.89
2022-12-31T07:59:24.176Z,9.89
2022-12-31T08:00:24.997Z,10
2022-12-31T08:01:25.292Z,10
2022-12-31T08:02:25.877Z,10
2022-12-31T08:03:26.301Z,10
2022-12-31T08:04:26.494Z,10
2022-12-31T08:05:26.667Z,10
2022-12-31T08:06:26.816Z,10
2022-12-31T08:07:26.991Z,10
2022-12-31T08:08:27.141Z,10
2022-12-31T08:09:27.310Z,10
2022-12-31T08:10:27.490Z,10
2022-12-31T08:11:27.649Z,10
2022-12-31T08:12:27.800Z,10
2022-12-31T08:13:27.964Z,10
2022-12-31T08:14:28.125Z,10
2022-12-31T08:15:30.955Z,10
2022-12-31T08:16:31.208Z,10
2022-12-31T08:17:31.491Z,10
2022-12-31T08:18:31.671Z,10
2022-12-31T08:19:31.952Z,10
2022-12-31T08:20:32.134Z,10
2022-12-31T08:21:35.336Z,10
2022-12-31T08:22:35.557Z,10
2022-12-31T08:23:35.702Z,10.1
2022-12-31T08:24:35.903Z,10.1
2022-12-31T08:25:36.055Z,10.1
2022-12-31T08:26:36.231Z,10.1
2022-12-31T08:27:36.417Z,10.1
2022-12-31T08:28:36.572Z,10.1
2022-12-31T08:29:36.727Z,10.1
2022-12-31T08:30:36.886Z,10.1
2022-12-31T08:31:37.145Z,10.1
2022-12-31T08:32:37.380Z,10.1
2022-12-31T08:33:37.538Z,10.3
2022-12-31T08:34:37.693Z,10.3
2022-12-31T08:35:37.848Z,10.3
2022-12-31T08:36:38.018Z,10.3
2022-12-31T08:37:38.188Z,10.3
2022-12-31T08:38:38.347Z,10.3
2022-12-31T08:39:38.508Z,10.3
2022-12-31T08:40:38.719Z,10.3
2022-12-31T08:41:43.391Z,10.3
2022-12-31T08:42:43.648Z,10.9
2022-12-31T08:43:43.802Z,10.9
2022-12-31T08:44:43.968Z,10.9
2022-12-31T08:45:44.182Z,10.9
2022-12-31T08:46:44.437Z,10.9
2022-12-31T08:47:44.592Z,10.9
2022-12-31T08:48:44.769Z,10.9
2022-12-31T08:49:44.938Z,10.9
2022-12-31T08:50:45.089Z,10.9
2022-12-31T08:51:45.237Z,10.9
2022-12-31T08:52:45.415Z,11.4
2022-12-31T08:53:45.572Z,11.4
2022-12-31T08:54:45.732Z,11.4
2022-12-31T08:55:45.890Z,11.4
2022-12-31T08:56:50.817Z,11.4
2022-12-31T08:57:51.007Z,11.6
2022-12-31T08:58:51.163Z,11.6
2022-12-31T08:59:51.348Z,11.6
2022-12-31T09:00:51.663Z,11.6
2022-12-31T09:01:52.173Z,11.6
2022-12-31T09:02:52.572Z,11.9
2022-12-31T09:03:52.865Z,11.9
2022-12-31T09:04:53.115Z,11.9
2022-12-31T09:05:53.304Z,11.9
2022-12-31T09:06:53.459Z,11.9
2022-12-31T09:07:53.602Z,11.9
2022-12-31T09:08:53.766Z,11.9
2022-12-31T09:09:53.938Z,11.9
2022-12-31T09:10:54.100Z,11.9
2022-12-31T09:11:54.282Z,11.9
2022-12-31T09:12:54.437Z,12.4
2022-12-31T09:13:54.590Z,12.4
2022-12-31T09:14:54.730Z,12.4
2022-12-31T09:15:54.874Z,12.4
2022-12-31T09:16:55.183Z,12.4
2022-12-31T09:17:55.410Z,12.4
2022-12-31T09:18:55.588Z,12.4
2022-12-31T09:19:55.768Z,12.4
2022-12-31T09:20:55.910Z,12.4
2022-12-31T09:21:56.090Z,12.4
2022-12-31T09:22:56.276Z,13
2022-12-31T09:23:56.427Z,13
2022-12-31T09:24:56.638Z,13
2022-12-31T09:25:56.826Z,13
2022-12-31T09:26:56.977Z,13
2022-12-31T09:27:57.136Z,13
2022-12-31T09:28:57.307Z,13
2022-12-31T09:29:57.477Z,13
2022-12-31T09:30:57.634Z,13
2022-12-31T09:31:57.871Z,13
2022-12-31T09:33:01.691Z,13.5
2022-12-31T09:34:01.986Z,13.5
2022-12-31T09:35:02.163Z,13.5
2022-12-31T09:36:02.331Z,13.5
2022-12-31T09:37:02.494Z,13.5
2022-12-31T09:38:11.358Z,13.5
2022-12-31T09:39:12.224Z,13.8
2022-12-31T09:40:12.378Z,13.8
2022-12-31T09:41:12.568Z,13.8
2022-12-31T09:42:12.723Z,13.8
2022-12-31T09:43:12.875Z,14.1
2022-12-31T09:44:13.030Z,14.1
2022-12-31T09:45:13.212Z,14.1
2022-12-31T09:46:13.440Z,14.1
2022-12-31T09:47:13.717Z,14.1
2022-12-31T09:48:13.867Z,14.1
2022-12-31T09:49:14.021Z,14.1
2022-12-31T09:50:14.171Z,14.1
2022-12-31T09:51:14.334Z,14.1
2022-12-31T09:52:14.510Z,14.1
2022-12-31T09:53:14.671Z,14.8
2022-12-31T09:54:14.826Z,14.8
2022-12-31T09:55:14.980Z,14.8
2022-12-31T09:56:15.151Z,14.8
2022-12-31T09:57:15.355Z,14.8
2022-12-31T09:58:15.505Z,14.8
2022-12-31T09:59:15.655Z,14.8
2022-12-31T10:00:15.827Z,14.8
2022-12-31T10:01:16.272Z,14.8
2022-12-31T10:02:17.028Z,14.8
2022-12-31T10:03:17.701Z,15.7
2022-12-31T10:04:17.995Z,15.7
2022-12-31T10:05:18.151Z,15.7
2022-12-31T10:06:18.330Z,15.7
2022-12-31T10:07:18.527Z,15.7
2022-12-31T10:08:18.784Z,15.7
2022-12-31T10:09:18.931Z,15.7
2022-12-31T10:10:19.204Z,15.7
2022-12-31T10:11:19.552Z,15.7
2022-12-31T10:12:19.707Z,15.7
2022-12-31T10:13:19.859Z,16.2
2022-12-31T10:14:20.027Z,16.2
2022-12-31T10:15:20.181Z,16.2
2022-12-31T10:16:20.413Z,16.2
2022-12-31T10:17:20.696Z,16.2
2022-12-31T10:18:20.846Z,16.2
2022-12-31T10:19:21.018Z,16.2
2022-12-31T10:20:21.186Z,16.2
2022-12-31T10:21:21.337Z,16.2
2022-12-31T10:22:21.489Z,16.2
2022-12-31T10:23:21.669Z,16.2
2022-12-31T10:24:21.821Z,16.2
2022-12-31T10:25:39.621Z,16.2
2022-12-31T10:26:40.000Z,16.1
2022-12-31T10:27:40.169Z,16.1
2022-12-31T10:28:40.328Z,16.1
2022-12-31T10:29:40.475Z,16.1
2022-12-31T10:30:40.853Z,16.1
2022-12-31T10:31:41.089Z,16.1
2022-12-31T10:32:41.244Z,16
2022-12-31T10:33:41.396Z,16
2022-12-31T10:34:41.575Z,16
2022-12-31T10:35:41.730Z,16
2022-12-31T10:36:41.876Z,16
2022-12-31T10:37:42.025Z,16
2022-12-31T10:38:42.173Z,16
2022-12-31T10:39:42.346Z,16
2022-12-31T10:40:42.520Z,16
2022-12-31T10:41:42.682Z,16
2022-12-31T10:42:42.829Z,15.9
2022-12-31T10:43:42.976Z,15.9
2022-12-31T10:44:43.130Z,15.9
2022-12-31T10:45:43.403Z,15.9
2022-12-31T10:46:43.745Z,15.9
2022-12-31T10:47:43.957Z,15.9
2022-12-31T10:48:44.120Z,15.9
2022-12-31T10:49:44.272Z,15.9
2022-12-31T10:50:44.425Z,15.9
2022-12-31T10:51:44.605Z,15.9
2022-12-31T10:52:44.763Z,16
2022-12-31T10:53:44.941Z,16
2022-12-31T10:54:45.101Z,16
2022-12-31T10:55:45.253Z,16
2022-12-31T10:56:45.420Z,16
2022-12-31T10:57:45.586Z,16
2022-12-31T10:58:45.765Z,16
2022-12-31T10:59:45.964Z,16
2022-12-31T11:00:46.120Z,16
2022-12-31T11:01:46.481Z,16
2022-12-31T11:02:47.182Z,16.2
2022-12-31T11:03:47.664Z,16.2
2022-12-31T11:04:47.886Z,16.2
2022-12-31T11:05:48.038Z,16.2
2022-12-31T11:06:48.188Z,16.2
2022-12-31T11:07:48.348Z,16.2
2022-12-31T11:08:48.523Z,16.2
2022-12-31T11:09:48.671Z,16.2
2022-12-31T11:10:48.873Z,16.2
2022-12-31T11:11:49.057Z,16.2
2022-12-31T11:12:49.201Z,16.5
2022-12-31T11:13:49.350Z,16.5
2022-12-31T11:14:49.501Z,16.5
2022-12-31T11:15:50.641Z,16.5
2022-12-31T11:16:50.886Z,16.5
2022-12-31T11:17:51.040Z,16.5
2022-12-31T11:18:51.183Z,16.5
2022-12-31T11:19:51.342Z,16.5
2022-12-31T11:20:51.513Z,16.5
2022-12-31T11:21:51.658Z,16.5
2022-12-31T11:22:51.817Z,17
2022-12-31T11:23:52.055Z,17
2022-12-31T11:24:52.218Z,17
2022-12-31T11:25:52.381Z,17
2022-12-31T11:26:52.548Z,17
2022-12-31T11:27:52.711Z,17
2022-12-31T11:28:52.878Z,17
2022-12-31T11:29:53.045Z,17
2022-12-31T11:30:53.309Z,17
2022-12-31T11:31:53.551Z,17
2022-12-31T11:32:53.740Z,17.79
2022-12-31T11:33:53.931Z,17.79
2022-12-31T11:34:54.094Z,17.79
2022-12-31T11:35:54.240Z,17.79
2022-12-31T11:36:54.398Z,17.79
2022-12-31T11:37:54.576Z,17.79
2022-12-31T11:38:54.759Z,17.79
2022-12-31T11:39:54.939Z,17.79
2022-12-31T11:40:55.115Z,17.79
2022-12-31T11:41:55.278Z,17.79
2022-12-31T11:42:55.450Z,18.4
2022-12-31T11:43:55.617Z,18.4
2022-12-31T11:44:55.776Z,18.4
2022-12-31T11:45:55.927Z,18.4
2022-12-31T11:46:56.079Z,18.4
2022-12-31T11:48:31.211Z,18.4
2022-12-31T11:49:32.873Z,18.5
2022-12-31T11:50:33.024Z,18.5
2022-12-31T11:51:33.226Z,18.5
2022-12-31T11:52:33.390Z,18.5
2022-12-31T11:53:33.557Z,18.4
2022-12-31T11:54:33.714Z,18.4
2022-12-31T11:55:33.870Z,18.4
2022-12-31T11:56:34.016Z,18.4
2022-12-31T11:57:34.206Z,18.4
2022-12-31T11:58:34.453Z,18.4
2022-12-31T11:59:34.618Z,18.4
2022-12-31T12:00:34.774Z,18.4
2022-12-31T12:01:35.059Z,18.4
2022-12-31T12:02:35.491Z,18.4
2022-12-31T12:03:35.804Z,18.2
2022-12-31T12:04:35.990Z,18.2
2022-12-31T12:05:36.154Z,18.2
2022-12-31T12:06:36.309Z,18.2
2022-12-31T12:07:36.479Z,18.2
2022-12-31T12:08:36.637Z,18.2
2022-12-31T12:09:36.806Z,18.2
2022-12-31T12:10:37.336Z,18.2
2022-12-31T12:11:37.499Z,18.2
2022-12-31T12:12:37.650Z,18.2
2022-12-31T12:13:37.792Z,17.9
2022-12-31T12:14:37.972Z,17.9
2022-12-31T12:15:38.147Z,17.9
2022-12-31T12:16:38.489Z,17.9
2022-12-31T12:17:38.708Z,17.9
2022-12-31T12:18:38.859Z,17.9
2022-12-31T12:19:39.025Z,17.9
2022-12-31T12:20:39.178Z,17.9
2022-12-31T12:21:39.346Z,17.9
2022-12-31T12:22:39.497Z,17.9
2022-12-31T12:23:39.652Z,17.7
2022-12-31T12:24:39.864Z,17.7
2022-12-31T12:25:40.026Z,17.7
2022-12-31T12:26:40.181Z,17.7
2022-12-31T12:27:40.364Z,17.7
2022-12-31T12:28:44.677Z,17.7
2022-12-31T12:29:44.886Z,17.5
2022-12-31T12:30:45.038Z,17.5
2022-12-31T12:31:45.236Z,17.5
2022-12-31T12:32:45.452Z,17.4
2022-12-31T12:33:45.615Z,17.4
2022-12-31T12:34:50.370Z,17.4
2022-12-31T12:35:50.608Z,17.29
2022-12-31T12:36:50.766Z,17.29
2022-12-31T12:37:50.916Z,17.29
2022-12-31T12:38:51.066Z,17.29
2022-12-31T12:39:51.222Z,17.29
2022-12-31T12:40:51.381Z,17.29
2022-12-31T12:41:51.539Z,17.29
2022-12-31T12:42:51.693Z,17
2022-12-31T12:43:51.854Z,17
2022-12-31T12:44:52.001Z,17
2022-12-31T12:45:52.723Z,17
2022-12-31T12:46:53.193Z,17
2022-12-31T12:47:53.452Z,17
2022-12-31T12:48:53.605Z,17
2022-12-31T12:49:53.761Z,17
2022-12-31T12:50:53.915Z,17
2022-12-31T12:51:54.057Z,17
2022-12-31T12:52:59.769Z,16.79
2022-12-31T12:54:00.067Z,16.79
2022-12-31T12:55:00.243Z,16.79
2022-12-31T12:56:00.423Z,16.79
2022-12-31T12:57:00.576Z,16.79
2022-12-31T12:58:00.782Z,16.79
2022-12-31T12:59:00.958Z,16.79
2022-12-31T13:00:01.109Z,16.79
2022-12-31T13:01:01.628Z,16.79
2022-12-31T13:02:02.456Z,16.79
2022-12-31T13:03:03.096Z,16.6
2022-12-31T13:04:35.673Z,16.6
2022-12-31T13:05:36.218Z,16.6
2022-12-31T13:06:36.371Z,16.6
2022-12-31T13:07:36.526Z,16.6
2022-12-31T13:08:36.696Z,16.6
2022-12-31T13:09:36.864Z,16.6
2022-12-31T13:10:37.012Z,16.6
2022-12-31T13:11:37.168Z,16.6
2022-12-31T13:13:23.653Z,16.6
2022-12-31T13:14:25.575Z,16.29
2022-12-31T13:15:25.757Z,16.29
2022-12-31T13:16:25.999Z,16.29
2022-12-31T13:17:26.211Z,16.29
2022-12-31T13:18:26.366Z,16.29
2022-12-31T13:19:26.534Z,16.29
2022-12-31T13:20:26.690Z,16.29
2022-12-31T13:21:26.877Z,16.29
2022-12-31T13:22:27.046Z,16.29
2022-12-31T13:23:27.263Z,16
2022-12-31T13:24:27.460Z,16
2022-12-31T13:25:27.656Z,16
2022-12-31T13:26:27.855Z,16
2022-12-31T13:27:28.044Z,16
2022-12-31T13:28:28.262Z,16
2022-12-31T13:29:28.422Z,16
2022-12-31T13:30:28.573Z,16
2022-12-31T13:31:28.819Z,16